Latest Coastal Weather Observations for Mornington Island Airport

IDQ60701

Issued at 4:55 pm EST Tuesday 2 September 2014 (issued every 10 minutes, with the page automatically refreshed every 10 minutes)

About coastal observations | Map of coastal stations | Coastal observations for QLD | Marine services | Other Formats
Station Details ID: 029182 Name: MORNINGTON ISLAND AIRPORT Lat: -16.66 Lon: 139.17 Height: 9.0 m
Data from the previous 72 hours. | See also: Recent months at Mornington Island Airport
Date/Time
EST
Temp

°C
Wind Pressure Rain
since 9am
mm
Weather Cloud Vis
km
Sea
Height
m
Swell
Dir
 
Speed
knots
Gust
knots
hPa Trend Height
m
Period
s
Dir
02/04:30pm 31.6 ESE 11 14 1013.3 - 0.0 - - - - - - -
02/04:00pm 31.5 ESE 10 14 1013.4 - 0.0 - - - - - - -
02/03:30pm 31.8 SE 7 12 1013.5 - 0.0 - - - - - - -
02/03:00pm 31.3 SE 9 13 1013.9 - 0.0 - - - - - - -
02/02:30pm 30.7 SE 10 14 1014.3 - 0.0 - - - - - - -
02/02:00pm 30.0 SE 10 13 1014.7 - 0.0 - - - - - - -
02/01:30pm 29.8 SE 11 15 1015.1 - 0.0 - - - - - - -
02/01:00pm 30.5 SE 10 17 1015.3 - 0.0 - - - - - - -
02/12:30pm 29.9 SE 8 13 1015.8 - 0.0 - - - - - - -
02/12:00pm 30.0 SE 9 13 1016.2 - 0.0 - - - - - - -
02/11:30am 29.0 SE 10 14 1016.6 - 0.0 - - - - - - -
02/11:00am 28.0 ESE 9 12 1016.7 - 0.0 - - - - - - -
02/10:30am 29.0 SSE 5 8 1016.7 - 0.0 - - - - - - -
02/10:00am 26.7 SSE 3 5 1016.9 - 0.0 - - - - - - -
02/09:30am 24.8 S 4 6 1017.0 - 0.0 - - - - - - -
02/09:00am 23.0 SSW 3 5 1016.8 - 0.2 - - - - - - -
02/08:30am 21.1 SSW 3 5 1016.7 - 0.2 - - - - - - -
02/08:00am 19.7 SSW 2 4 1016.4 - 0.2 - - - - - - -
02/07:30am 18.9 SW 3 5 1016.2 - 0.2 - - - - - - -
02/07:00am 18.6 SSW 4 6 1016.0 - 0.2 - - - - - - -
02/06:30am 18.8 SSW 4 5 1015.6 - 0.2 - - - - - - -
02/06:00am 18.6 SSW 3 5 1015.3 - 0.2 - - - - - - -
02/05:30am 19.6 SW 7 10 1015.2 - 0.2 - - - - - - -
02/05:00am 18.0 SSE 1 4 1014.9 - 0.2 - - - - - - -
02/04:30am 18.5 CALM 0 0 1014.8 - 0.2 - - - - - - -
02/04:00am 19.5 SSW 1 3 1015.0 - 0.2 - - - - - - -
02/03:30am 20.5 SW 5 8 1015.2 - 0.2 - - - - - - -
02/03:00am 20.6 WSW 6 8 1015.3 - 0.0 - - - - - - -
02/02:30am 20.8 WSW 5 8 1015.4 - 0.0 - - - - - - -
02/02:00am 21.4 W 5 6 1015.3 - 0.0 - - - - - - -
02/01:30am 20.6 WSW 5 6 1015.3 - 0.0 - - - - - - -
02/01:00am 18.8 CALM 0 1 1015.1 - 0.0 - - - - - - -
02/12:30am 18.6 N 1 4 1015.2 - 0.0 - - - - - - -
02/12:00am 19.8 N 4 4 1015.4 - 0.0 - - - - - - -
 
Date/Time
EST
Temp

°C
Wind Pressure Rain
since 9am
mm
Weather Cloud Vis
km
Sea
Height
m
Swell
Dir
 
Speed
knots
Gust
knots
hPa Trend Height
m
Period
s
Dir
01/11:30pm 20.1 N 3 5 1015.5 - 0.0 - - - - - - -
01/11:00pm 20.1 NNW 5 5 1015.4 - 0.0 - - - - - - -
01/10:30pm 20.0 NNW 3 4 1015.3 - 0.0 - - - - - - -
01/10:00pm 20.2 N 3 4 1015.2 - 0.0 - - - - - - -
01/09:30pm 20.4 N 3 4 1015.0 - 0.0 - - - - - - -
01/09:00pm 20.8 NNE 5 6 1014.9 - 0.0 - - - - - - -
01/08:30pm 21.2 N 6 9 1014.5 - 0.0 - - - - - - -
01/08:00pm 22.3 NE 5 6 1014.0 - 0.0 - - - - - - -
01/07:30pm 22.9 NE 3 4 1013.8 - 0.0 - - - - - - -
01/07:00pm 23.2 N 5 7 1013.5 - 0.0 - - - - - - -
01/06:30pm 24.4 N 5 6 1013.4 - 0.0 - - - - - - -
01/06:00pm 25.4 N 7 8 1013.3 - 0.0 - - - - - - -
01/05:30pm 26.5 N 7 8 1013.1 - 0.0 - - - - - - -
01/05:00pm 27.3 NNW 8 10 1013.0 - 0.0 - - - - - - -
01/04:30pm 27.8 NW 9 11 1012.9 - 0.0 - - - - - - -
01/04:00pm 26.9 NW 7 11 1012.9 - 0.0 - - - - - - -
01/03:30pm 27.7 WNW 7 9 1013.1 - 0.0 - - - - - - -
01/03:00pm 26.8 W 5 7 1013.5 - 0.0 - - - - - - -
01/02:30pm 27.1 WNW 7 9 1014.0 - 0.0 - - - - - - -
01/02:00pm 26.3 WNW 8 10 1014.4 - 0.0 - - - - - - -
01/01:30pm 27.1 NW 10 12 1014.8 - 0.0 - - - - - - -
01/01:00pm 27.3 NW 10 13 1015.3 - 0.0 - - - - - - -
01/12:30pm 26.8 WNW 7 9 1015.7 - 0.0 - - - - - - -
01/12:00pm 28.5 W 5 7 1016.1 - 0.0 - - - - - - -
01/11:30am 28.3 ESE 7 11 1016.7 - 0.0 - - - - - - -
01/11:00am 27.1 SE 9 13 1017.3 - 0.0 - - - - - - -
01/10:30am 25.2 SE 9 15 1017.6 - 0.0 - - - - - - -
01/10:00am 25.7 S 7 11 1017.1 - 0.0 - - - - - - -
01/09:30am 25.0 S 4 6 1016.9 - 0.0 - - - - - - -
01/09:00am 22.5 SSW 3 5 1016.7 - 0.2 - - - - - - -
01/08:30am 21.3 SSW 3 4 1016.5 - 0.2 - - - - - - -
01/08:00am 19.8 S 3 5 1016.1 - 0.2 - - - - - - -
01/07:30am 19.1 SSW 4 6 1015.6 - 0.2 - - - - - - -
01/07:00am 18.7 SSW 4 6 1015.2 - 0.2 - - - - - - -
01/06:30am 18.1 SSW 4 6 1014.8 - 0.2 - - - - - - -
01/06:00am 18.7 SW 4 6 1014.3 - 0.2 Recent precip. - - - - - -
01/05:30am 19.1 SSW 5 6 1014.2 - 0.2 - - - - - - -
01/05:00am 19.8 SW 5 8 1014.1 - 0.0 - - - - - - -
01/04:30am 19.4 SW 4 7 1013.9 - 0.0 - - - - - - -
01/04:00am 20.0 SSW 3 6 1013.8 - 0.0 - - - - - - -
01/03:30am 20.4 SW 4 7 1013.6 - 0.0 - - - - - - -
01/03:00am 20.5 WSW 5 7 1013.6 - 0.0 - - - - - - -
01/02:30am 20.8 WSW 5 7 1013.6 - 0.0 - - - - - - -
01/02:00am 20.6 SW 4 6 1013.5 - 0.0 - - - - - - -
01/01:30am 20.3 WSW 3 5 1013.7 - 0.0 - - - - - - -
01/01:00am 20.5 W 4 5 1013.9 - 0.0 - - - - - - -
01/12:30am 20.8 W 5 6 1014.0 - 0.0 - - - - - - -
01/12:00am 20.3 W 5 5 1014.0 - 0.0 - - - - - - -
 
Date/Time
EST
Temp

°C
Wind Pressure Rain
since 9am
mm
Weather Cloud Vis
km
Sea
Height
m
Swell
Dir
 
Speed
knots
Gust
knots
hPa Trend Height
m
Period
s
Dir
31/11:30pm 19.8 WNW 2 4 1014.0 - 0.0 - - - - - - -
31/11:00pm 18.8 CALM 0 0 1014.1 - 0.0 - - - - - - -
31/10:30pm 19.1 NNE 3 4 1014.2 - 0.0 - - - - - - -
31/10:00pm 20.4 CALM 0 3 1014.5 - 0.0 - - - - - - -
31/09:30pm 20.0 NNW 3 4 1014.4 - 0.0 - - - - - - -
31/09:00pm 20.3 NNE 4 5 1014.3 - 0.0 - - - - - - -
31/08:30pm 21.0 N 3 4 1014.0 - 0.0 - - - - - - -
31/08:00pm 21.8 NE 5 6 1013.7 - 0.0 - - - - - - -
31/07:30pm 23.0 NE 5 7 1013.3 - 0.0 - - - - - - -
31/07:00pm 24.1 ENE 6 8 1012.9 - 0.0 - - - - - - -
31/06:30pm 25.1 NE 7 9 1012.8 - 0.0 - - - - - - -
31/06:00pm 27.6 NE 7 10 1012.5 - 0.0 - - - - - - -
31/05:30pm 26.6 N 6 8 1012.3 - 0.0 - - - - - - -
31/05:00pm 27.3 N 5 8 1012.2 - 0.0 - - - - - - -
31/04:30pm 26.5 W 7 11 1012.1 - 0.0 - - - - - - -
31/04:00pm 27.6 NNW 7 10 1012.2 - 0.0 - - - - - - -
31/03:30pm 27.7 NNW 9 11 1012.5 - 0.0 - - - - - - -
31/03:00pm 27.4 NW 7 10 1012.6 - 0.0 - - - - - - -
31/02:30pm 27.8 W 8 10 1013.0 - 0.0 - - - - - - -
31/02:00pm 28.3 WNW 7 10 1013.6 - 0.0 - - - - - - -
31/01:30pm 27.4 W 5 7 1014.1 - 0.0 - - - - - - -
31/01:00pm 27.4 W 7 10 1014.5 - 0.0 - - - - - - -
31/12:30pm 28.1 SE 7 9 1014.7 - 0.0 - - - - - - -
31/12:00pm 28.0 ESE 10 13 1015.1 - 0.0 - - - - - - -
31/11:30am 27.5 E 13 15 1015.5 - 0.0 - - - - - - -
31/11:00am 26.5 ESE 11 15 1016.0 - 0.0 - - - - - - -
31/10:30am 26.2 E 13 18 1016.2 - 0.0 - - - - - - -
31/10:00am 25.5 SE 8 13 1016.0 - 0.0 - - - - - - -
31/09:30am 24.2 SE 7 11 1015.9 - 0.0 - - - - - - -
31/09:00am 23.1 S 7 10 1015.8 - 0.2 - - - - - - -
31/08:30am 21.3 S 5 7 1015.9 - 0.2 - - - - - - -
31/08:00am 20.0 SSE 4 7 1015.6 - 0.2 - - - - - - -
31/07:30am 18.8 S 3 5 1015.2 - 0.2 - - - - - - -
31/07:00am 18.0 S 2 5 1015.0 - 0.2 - - - - - - -
31/06:30am 17.6 E 1 8 1014.7 - 0.0 - - - - - - -
31/06:00am 17.5 E 4 6 1014.5 - 0.0 - - - - - - -
31/05:30am 18.1 SSW 4 8 1014.3 - 0.0 - - - - - - -
31/05:00am 17.9 SSW 3 5 1014.3 - 0.0 - - - - - - -
31/04:30am 17.9 SE 5 7 1014.3 - 0.0 - - - - - - -
31/04:00am 18.4 SSW 4 6 1014.0 - 0.0 - - - - - - -
31/03:30am 17.7 SSW 3 5 1014.0 - 0.0 - - - - - - -
31/03:00am 18.7 SSW 4 6 1013.9 - 0.0 - - - - - - -
31/02:30am 18.0 S 2 5 1014.2 - 0.0 - - - - - - -
31/02:00am 18.7 SSW 3 6 1014.2 - 0.0 - - - - - - -
31/01:30am 18.2 WSW 2 5 1014.4 - 0.0 - - - - - - -
31/01:00am 16.9 WNW 2 5 1014.6 - 0.0 - - - - - - -
31/12:30am 18.0 W 3 5 1014.7 - 0.0 - - - - - - -
31/12:00am 18.8 W 3 6 1014.9 - 0.0 - - - - - - -
 
Date/Time
EST
Temp

°C
Wind Pressure Rain
since 9am
mm
Weather Cloud Vis
km
Sea
Height
m
Swell
Dir
 
Speed
knots
Gust
knots
hPa Trend Height
m
Period
s
Dir
30/11:30pm 19.0 CALM 0 2 1014.8 - 0.0 - - - - - - -
30/11:00pm 19.0 WNW 4 5 1014.9 - 0.0 - - - - - - -
30/10:30pm 18.7 NNW 3 4 1014.9 - 0.0 - - - - - - -
30/10:00pm 19.1 N 4 5 1015.0 - 0.0 - - - - - - -
30/09:30pm 19.7 ENE 3 5 1015.2 - 0.0 - - - - - - -
30/09:00pm 20.1 ESE 3 4 1015.2 - 0.0 - - - - - - -
30/08:30pm 20.7 ENE 4 5 1015.0 - 0.0 - - - - - - -
30/08:00pm 21.5 E 5 6 1014.9 - 0.0 - - - - - - -
30/07:30pm 21.5 ESE 5 7 1014.7 - 0.0 - - - - - - -
30/07:00pm 21.9 SSE 4 6 1014.7 - 0.0 - - - - - - -
30/06:30pm 22.6 SSE 5 7 1014.5 - 0.0 - - - - - - -
30/06:00pm 24.3 WNW 4 5 1014.2 - 0.0 - - - - - - -
30/05:30pm 24.4 WNW 5 7 1014.1 - 0.0 - - - - - - -
30/05:00pm 24.8 W 5 8 1013.9 - 0.0 - - - - - - -

Other Formats:

Comma delimited format used in spreadsheet applications
http://www.bom.gov.au/fwo/IDQ60701/IDQ60701.94254.axf

JavaScript Object Notation format (JSON) in row-major order
http://www.bom.gov.au/fwo/IDQ60701/IDQ60701.94254.json